sensor_id;sensor_type;location;lat;lon;timestamp;pressure;altitude;pressure_sealevel;temperature;humidity
62508;BME280;48556;51.972;4.624;2023-03-03T00:01:29;102556.81;;;5.81;78.66
62508;BME280;48556;51.972;4.624;2023-03-03T00:04:06;102564.28;;;6.20;77.39
62508;BME280;48556;51.972;4.624;2023-03-03T00:07:03;102555.19;;;6.35;76.18
62508;BME280;48556;51.972;4.624;2023-03-03T00:09:52;102554.22;;;6.31;75.81
62508;BME280;48556;51.972;4.624;2023-03-03T00:12:55;102549.81;;;6.30;75.91
62508;BME280;48556;51.972;4.624;2023-03-03T00:15:23;102547.66;;;6.44;75.71
62508;BME280;48556;51.972;4.624;2023-03-03T00:17:55;102557.06;;;6.39;75.43
62508;BME280;48556;51.972;4.624;2023-03-03T00:20:30;102557.69;;;6.31;75.02
62508;BME280;48556;51.972;4.624;2023-03-03T00:23:19;102557.78;;;6.07;77.20
62508;BME280;48556;51.972;4.624;2023-03-03T00:26:22;102557.59;;;6.28;76.12
62508;BME280;48556;51.972;4.624;2023-03-03T00:31:43;102560.81;;;6.47;74.85
62508;BME280;48556;51.972;4.624;2023-03-03T00:34:25;102564.81;;;6.36;75.87
62508;BME280;48556;51.972;4.624;2023-03-03T00:36:55;102560.41;;;6.35;75.39
62508;BME280;48556;51.972;4.624;2023-03-03T00:39:37;102557.19;;;6.16;76.54
62508;BME280;48556;51.972;4.624;2023-03-03T00:42:46;102559.03;;;6.19;76.50
62508;BME280;48556;51.972;4.624;2023-03-03T00:45:55;102561.59;;;6.17;76.38
62508;BME280;48556;51.972;4.624;2023-03-03T00:49:19;102557.59;;;6.03;77.59
62508;BME280;48556;51.972;4.624;2023-03-03T00:51:52;102556.34;;;5.93;77.45
62508;BME280;48556;51.972;4.624;2023-03-03T00:54:18;102560.94;;;5.74;78.27
62508;BME280;48556;51.972;4.624;2023-03-03T00:57:19;102562.63;;;5.72;79.25
62508;BME280;48556;51.972;4.624;2023-03-03T00:59:55;102553.09;;;5.98;78.50
62508;BME280;48556;51.972;4.624;2023-03-03T01:02:21;102561.31;;;5.85;78.53
62508;BME280;48556;51.972;4.624;2023-03-03T01:04:50;102559.28;;;6.01;78.29
62508;BME280;48556;51.972;4.624;2023-03-03T01:07:24;102554.28;;;5.58;80.25
62508;BME280;48556;51.972;4.624;2023-03-03T01:10:17;102559.63;;;5.61;80.87
62508;BME280;48556;51.972;4.624;2023-03-03T01:12:44;102548.63;;;5.46;80.83
62508;BME280;48556;51.972;4.624;2023-03-03T01:15:20;102552.63;;;5.36;81.52
62508;BME280;48556;51.972;4.624;2023-03-03T01:18:11;102556.19;;;4.93;83.28
62508;BME280;48556;51.972;4.624;2023-03-03T01:20:48;102553.69;;;5.19;82.84
62508;BME280;48556;51.972;4.624;2023-03-03T01:23:14;102555.50;;;5.44;82.88
62508;BME280;48556;51.972;4.624;2023-03-03T01:25:39;102559.13;;;5.47;81.58
62508;BME280;48556;51.972;4.624;2023-03-03T01:28:08;102560.53;;;5.63;81.44
62508;BME280;48556;51.972;4.624;2023-03-03T01:30:33;102563.13;;;5.15;83.85
62508;BME280;48556;51.972;4.624;2023-03-03T01:33:04;102562.84;;;5.31;83.88
62508;BME280;48556;51.972;4.624;2023-03-03T01:35:30;102558.28;;;5.73;81.77
62508;BME280;48556;51.972;4.624;2023-03-03T01:38:06;102557.56;;;5.53;82.29
62508;BME280;48556;51.972;4.624;2023-03-03T01:41:12;102561.56;;;5.20;83.53
62508;BME280;48556;51.972;4.624;2023-03-03T01:44:13;102555.69;;;5.26;83.53
62508;BME280;48556;51.972;4.624;2023-03-03T01:52:39;102562.38;;;5.42;83.34
62508;BME280;48556;51.972;4.624;2023-03-03T01:55:39;102552.19;;;5.72;81.66
62508;BME280;48556;51.972;4.624;2023-03-03T01:58:29;102557.63;;;5.54;81.14
62508;BME280;48556;51.972;4.624;2023-03-03T02:01:01;102564.59;;;5.79;81.17
62508;BME280;48556;51.972;4.624;2023-03-03T02:03:40;102565.50;;;5.80;79.97
62508;BME280;48556;51.972;4.624;2023-03-03T02:06:14;102561.25;;;6.08;79.03
62508;BME280;48556;51.972;4.624;2023-03-03T02:11:29;102560.78;;;5.70;79.40
62508;BME280;48556;51.972;4.624;2023-03-03T02:14:01;102558.41;;;6.00;78.22
62508;BME280;48556;51.972;4.624;2023-03-03T02:16:52;102555.63;;;5.97;78.13
62508;BME280;48556;51.972;4.624;2023-03-03T02:19:54;102555.56;;;5.95;77.82
62508;BME280;48556;51.972;4.624;2023-03-03T02:22:53;102558.72;;;5.61;78.91
62508;BME280;48556;51.972;4.624;2023-03-03T02:25:51;102556.78;;;6.04;76.64
62508;BME280;48556;51.972;4.624;2023-03-03T02:28:19;102567.44;;;6.10;76.26
62508;BME280;48556;51.972;4.624;2023-03-03T02:31:04;102564.75;;;6.34;75.20
62508;BME280;48556;51.972;4.624;2023-03-03T02:33:41;102561.84;;;5.99;75.78
62508;BME280;48556;51.972;4.624;2023-03-03T02:36:23;102563.72;;;6.03;75.89
62508;BME280;48556;51.972;4.624;2023-03-03T02:39:08;102560.53;;;6.12;75.00
62508;BME280;48556;51.972;4.624;2023-03-03T02:42:15;102555.00;;;6.28;74.28
62508;BME280;48556;51.972;4.624;2023-03-03T02:44:50;102556.38;;;6.44;73.47
62508;BME280;48556;51.972;4.624;2023-03-03T02:47:18;102563.41;;;6.20;73.76
62508;BME280;48556;51.972;4.624;2023-03-03T02:50:16;102563.66;;;6.27;73.35
62508;BME280;48556;51.972;4.624;2023-03-03T02:52:42;102556.78;;;6.29;74.24
62508;BME280;48556;51.972;4.624;2023-03-03T02:55:27;102558.66;;;6.33;73.92
62508;BME280;48556;51.972;4.624;2023-03-03T02:58:26;102555.28;;;6.38;75.15
62508;BME280;48556;51.972;4.624;2023-03-03T03:01:12;102560.47;;;6.36;75.28
62508;BME280;48556;51.972;4.624;2023-03-03T03:03:55;102564.81;;;6.36;75.70
62508;BME280;48556;51.972;4.624;2023-03-03T03:06:37;102554.97;;;6.03;76.01
62508;BME280;48556;51.972;4.624;2023-03-03T03:09:21;102560.72;;;5.44;79.97
62508;BME280;48556;51.972;4.624;2023-03-03T03:11:56;102556.03;;;5.35;82.74
62508;BME280;48556;51.972;4.624;2023-03-03T03:14:58;102561.09;;;5.08;83.70
62508;BME280;48556;51.972;4.624;2023-03-03T03:17:29;102553.38;;;5.34;83.57
62508;BME280;48556;51.972;4.624;2023-03-03T03:20:09;102558.28;;;5.48;82.53
62508;BME280;48556;51.972;4.624;2023-03-03T03:22:47;102557.00;;;5.14;85.10
62508;BME280;48556;51.972;4.624;2023-03-03T03:25:12;102560.47;;;5.13;84.36
62508;BME280;48556;51.972;4.624;2023-03-03T03:28:07;102563.13;;;4.92;86.60
62508;BME280;48556;51.972;4.624;2023-03-03T03:30:34;102578.38;;;4.39;88.32
62508;BME280;48556;51.972;4.624;2023-03-03T03:33:35;102571.13;;;4.97;87.11
62508;BME280;48556;51.972;4.624;2023-03-03T03:36:09;102558.13;;;5.21;84.70
62508;BME280;48556;51.972;4.624;2023-03-03T03:38:35;102575.75;;;5.04;85.91
62508;BME280;48556;51.972;4.624;2023-03-03T03:41:05;102572.31;;;5.05;85.74
62508;BME280;48556;51.972;4.624;2023-03-03T03:43:48;102573.25;;;4.85;86.21
62508;BME280;48556;51.972;4.624;2023-03-03T03:46:15;102575.53;;;4.77;87.08
62508;BME280;48556;51.972;4.624;2023-03-03T03:49:03;102571.63;;;4.66;87.49
62508;BME280;48556;51.972;4.624;2023-03-03T03:51:47;102571.63;;;5.09;86.39
62508;BME280;48556;51.972;4.624;2023-03-03T03:54:21;102572.66;;;4.48;87.66
62508;BME280;48556;51.972;4.624;2023-03-03T03:56:47;102573.47;;;4.91;86.94
62508;BME280;48556;51.972;4.624;2023-03-03T03:59:43;102573.19;;;4.60;87.98
62508;BME280;48556;51.972;4.624;2023-03-03T04:02:09;102575.88;;;5.07;86.47
62508;BME280;48556;51.972;4.624;2023-03-03T04:04:34;102578.63;;;4.89;86.28
62508;BME280;48556;51.972;4.624;2023-03-03T04:07:14;102581.69;;;4.56;88.43
62508;BME280;48556;51.972;4.624;2023-03-03T04:09:46;102582.06;;;4.23;90.28
62508;BME280;48556;51.972;4.624;2023-03-03T04:12:27;102584.97;;;4.31;89.90
62508;BME280;48556;51.972;4.624;2023-03-03T04:14:54;102580.41;;;4.25;90.01
62508;BME280;48556;51.972;4.624;2023-03-03T04:17:24;102593.63;;;4.09;91.23
62508;BME280;48556;51.972;4.624;2023-03-03T04:19:54;102580.56;;;4.28;90.45
62508;BME280;48556;51.972;4.624;2023-03-03T04:22:20;102586.13;;;4.38;91.49
62508;BME280;48556;51.972;4.624;2023-03-03T04:24:45;102581.75;;;4.37;91.59
62508;BME280;48556;51.972;4.624;2023-03-03T04:27:13;102589.25;;;4.50;90.89
62508;BME280;48556;51.972;4.624;2023-03-03T04:29:40;102592.66;;;4.49;90.87
62508;BME280;48556;51.972;4.624;2023-03-03T04:32:06;102595.03;;;4.22;92.51
62508;BME280;48556;51.972;4.624;2023-03-03T04:34:43;102586.81;;;4.34;92.51
62508;BME280;48556;51.972;4.624;2023-03-03T04:37:29;102584.84;;;4.49;91.39
62508;BME280;48556;51.972;4.624;2023-03-03T04:40:13;102580.59;;;4.72;90.48
62508;BME280;48556;51.972;4.624;2023-03-03T04:42:45;102591.72;;;4.68;89.64
62508;BME280;48556;51.972;4.624;2023-03-03T04:45:32;102589.75;;;4.62;91.13
62508;BME280;48556;51.972;4.624;2023-03-03T04:48:06;102591.97;;;4.53;91.38
62508;BME280;48556;51.972;4.624;2023-03-03T04:51:03;102595.34;;;4.72;91.58
62508;BME280;48556;51.972;4.624;2023-03-03T04:53:39;102589.47;;;4.77;89.12
62508;BME280;48556;51.972;4.624;2023-03-03T04:56:06;102599.25;;;5.28;87.67
62508;BME280;48556;51.972;4.624;2023-03-03T04:58:31;102588.72;;;4.80;88.79
62508;BME280;48556;51.972;4.624;2023-03-03T05:00:57;102597.59;;;5.08;88.63
62508;BME280;48556;51.972;4.624;2023-03-03T05:03:23;102601.88;;;4.83;89.22
62508;BME280;48556;51.972;4.624;2023-03-03T05:06:06;102603.06;;;5.14;88.35
62508;BME280;48556;51.972;4.624;2023-03-03T05:08:36;102599.31;;;4.85;89.69
62508;BME280;48556;51.972;4.624;2023-03-03T05:11:12;102603.00;;;4.69;90.15
62508;BME280;48556;51.972;4.624;2023-03-03T05:13:39;102603.34;;;4.34;91.56
62508;BME280;48556;51.972;4.624;2023-03-03T05:16:21;102599.53;;;4.47;91.75
62508;BME280;48556;51.972;4.624;2023-03-03T05:19:01;102602.72;;;4.40;91.78
62508;BME280;48556;51.972;4.624;2023-03-03T05:21:36;102601.22;;;4.89;91.32
62508;BME280;48556;51.972;4.624;2023-03-03T05:24:12;102597.81;;;4.48;93.00
62508;BME280;48556;51.972;4.624;2023-03-03T05:26:47;102603.09;;;4.49;92.64
62508;BME280;48556;51.972;4.624;2023-03-03T05:29:12;102603.53;;;4.39;92.99
62508;BME280;48556;51.972;4.624;2023-03-03T05:31:55;102601.78;;;5.03;91.77
62508;BME280;48556;51.972;4.624;2023-03-03T05:34:31;102601.84;;;4.60;92.36
62508;BME280;48556;51.972;4.624;2023-03-03T05:36:57;102595.97;;;4.45;93.04
62508;BME280;48556;51.972;4.624;2023-03-03T05:39:45;102597.94;;;4.72;92.48
62508;BME280;48556;51.972;4.624;2023-03-03T05:42:11;102598.03;;;4.96;91.33
62508;BME280;48556;51.972;4.624;2023-03-03T05:44:37;102597.50;;;5.05;91.60
62508;BME280;48556;51.972;4.624;2023-03-03T05:47:23;102596.09;;;5.60;89.06
62508;BME280;48556;51.972;4.624;2023-03-03T05:50:06;102596.75;;;5.31;88.81
62508;BME280;48556;51.972;4.624;2023-03-03T05:52:37;102605.09;;;5.92;86.73
62508;BME280;48556;51.972;4.624;2023-03-03T05:55:29;102610.06;;;6.09;85.99
62508;BME280;48556;51.972;4.624;2023-03-03T05:58:03;102604.72;;;6.06;85.27
62508;BME280;48556;51.972;4.624;2023-03-03T06:00:36;102607.69;;;5.92;85.35
62508;BME280;48556;51.972;4.624;2023-03-03T06:03:02;102614.50;;;6.37;83.57
62508;BME280;48556;51.972;4.624;2023-03-03T06:05:28;102602.53;;;6.44;83.54
62508;BME280;48556;51.972;4.624;2023-03-03T06:07:54;102609.97;;;6.06;83.53
62508;BME280;48556;51.972;4.624;2023-03-03T06:10:20;102606.31;;;5.78;84.55
62508;BME280;48556;51.972;4.624;2023-03-03T06:12:51;102616.63;;;6.23;83.96
62508;BME280;48556;51.972;4.624;2023-03-03T06:15:23;102615.22;;;6.33;84.19
62508;BME280;48556;51.972;4.624;2023-03-03T06:17:55;102616.94;;;6.07;85.09
62508;BME280;48556;51.972;4.624;2023-03-03T06:20:44;102615.50;;;5.67;86.12
62508;BME280;48556;51.972;4.624;2023-03-03T06:23:10;102618.75;;;5.85;86.71
62508;BME280;48556;51.972;4.624;2023-03-03T06:25:41;102626.25;;;5.76;85.67
62508;BME280;48556;51.972;4.624;2023-03-03T06:28:10;102615.81;;;5.76;86.54
62508;BME280;48556;51.972;4.624;2023-03-03T06:30:35;102625.56;;;5.12;88.14
62508;BME280;48556;51.972;4.624;2023-03-03T06:33:15;102622.34;;;5.64;87.54
62508;BME280;48556;51.972;4.624;2023-03-03T06:35:40;102627.09;;;5.28;88.78
62508;BME280;48556;51.972;4.624;2023-03-03T06:38:06;102630.78;;;5.57;87.51
62508;BME280;48556;51.972;4.624;2023-03-03T06:40:48;102632.44;;;6.02;85.60
62508;BME280;48556;51.972;4.624;2023-03-03T06:43:18;102634.78;;;5.72;86.85
62508;BME280;48556;51.972;4.624;2023-03-03T06:45:45;102637.41;;;5.72;85.54
62508;BME280;48556;51.972;4.624;2023-03-03T06:48:10;102638.78;;;5.62;87.34
62508;BME280;48556;51.972;4.624;2023-03-03T06:50:36;102643.59;;;5.28;88.32
62508;BME280;48556;51.972;4.624;2023-03-03T06:53:12;102649.84;;;5.55;87.64
62508;BME280;48556;51.972;4.624;2023-03-03T06:55:46;102646.56;;;5.85;85.93
62508;BME280;48556;51.972;4.624;2023-03-03T06:58:20;102654.53;;;5.88;86.16
62508;BME280;48556;51.972;4.624;2023-03-03T07:01:09;102655.44;;;6.37;83.41
62508;BME280;48556;51.972;4.624;2023-03-03T07:03:57;102658.63;;;5.81;85.14
62508;BME280;48556;51.972;4.624;2023-03-03T07:06:35;102660.28;;;5.55;88.11
62508;BME280;48556;51.972;4.624;2023-03-03T07:09:30;102669.09;;;5.36;88.73
62508;BME280;48556;51.972;4.624;2023-03-03T07:12:05;102667.91;;;5.73;87.67
62508;BME280;48556;51.972;4.624;2023-03-03T07:15:01;102663.81;;;5.79;86.45
62508;BME280;48556;51.972;4.624;2023-03-03T07:17:55;102666.13;;;5.72;87.81
62508;BME280;48556;51.972;4.624;2023-03-03T07:20:38;102672.50;;;6.03;86.29
62508;BME280;48556;51.972;4.624;2023-03-03T07:23:35;102671.47;;;6.47;85.07
62508;BME280;48556;51.972;4.624;2023-03-03T07:26:16;102668.34;;;6.08;85.76
62508;BME280;48556;51.972;4.624;2023-03-03T07:28:51;102680.88;;;6.42;84.06
62508;BME280;48556;51.972;4.624;2023-03-03T07:31:41;102684.56;;;6.47;84.24
62508;BME280;48556;51.972;4.624;2023-03-03T07:34:49;102681.53;;;6.62;83.10
62508;BME280;48556;51.972;4.624;2023-03-03T07:37:37;102684.53;;;6.73;83.39
62508;BME280;48556;51.972;4.624;2023-03-03T07:49:22;102681.13;;;6.24;84.39
62508;BME280;48556;51.972;4.624;2023-03-03T07:51:53;102695.44;;;6.87;82.44
62508;BME280;48556;51.972;4.624;2023-03-03T07:54:29;102691.72;;;7.35;79.89
62508;BME280;48556;51.972;4.624;2023-03-03T07:57:06;102697.50;;;7.23;80.46
62508;BME280;48556;51.972;4.624;2023-03-03T08:05:34;102702.19;;;6.80;83.46
62508;BME280;48556;51.972;4.624;2023-03-03T08:08:21;102712.94;;;6.88;82.98
62508;BME280;48556;51.972;4.624;2023-03-03T08:11:03;102708.72;;;6.42;83.93
62508;BME280;48556;51.972;4.624;2023-03-03T08:13:40;102713.44;;;7.04;82.29
62508;BME280;48556;51.972;4.624;2023-03-03T08:18:51;102727.28;;;7.01;82.49
62508;BME280;48556;51.972;4.624;2023-03-03T08:21:25;102725.06;;;6.60;82.89
62508;BME280;48556;51.972;4.624;2023-03-03T08:23:53;102727.97;;;6.44;83.94
62508;BME280;48556;51.972;4.624;2023-03-03T08:26:47;102739.28;;;6.44;84.01
62508;BME280;48556;51.972;4.624;2023-03-03T08:29:17;102736.31;;;6.33;84.96
62508;BME280;48556;51.972;4.624;2023-03-03T08:31:56;102745.13;;;6.87;82.98
62508;BME280;48556;51.972;4.624;2023-03-03T08:34:21;102735.97;;;6.48;83.94
62508;BME280;48556;51.972;4.624;2023-03-03T08:36:47;102742.09;;;6.75;84.26
62508;BME280;48556;51.972;4.624;2023-03-03T08:39:13;102743.84;;;6.50;84.24
62508;BME280;48556;51.972;4.624;2023-03-03T08:41:39;102738.59;;;6.74;84.31
62508;BME280;48556;51.972;4.624;2023-03-03T08:44:08;102748.06;;;6.71;83.75
62508;BME280;48556;51.972;4.624;2023-03-03T08:46:34;102739.69;;;7.07;82.48
62508;BME280;48556;51.972;4.624;2023-03-03T08:48:59;102745.47;;;6.96;82.37
62508;BME280;48556;51.972;4.624;2023-03-03T08:51:25;102749.53;;;6.88;82.93
62508;BME280;48556;51.972;4.624;2023-03-03T08:53:50;102755.16;;;6.75;82.48
62508;BME280;48556;51.972;4.624;2023-03-03T08:56:20;102750.84;;;7.01;82.00
62508;BME280;48556;51.972;4.624;2023-03-03T08:58:48;102745.06;;;7.11;81.58
62508;BME280;48556;51.972;4.624;2023-03-03T09:01:14;102753.72;;;6.83;82.21
62508;BME280;48556;51.972;4.624;2023-03-03T09:03:41;102753.97;;;7.44;80.43
62508;BME280;48556;51.972;4.624;2023-03-03T09:06:07;102758.69;;;7.56;79.22
62508;BME280;48556;51.972;4.624;2023-03-03T09:08:32;102745.44;;;7.80;78.22
62508;BME280;48556;51.972;4.624;2023-03-03T09:11:09;102750.88;;;7.86;78.45
62508;BME280;48556;51.972;4.624;2023-03-03T09:13:36;102750.97;;;7.60;78.37
62508;BME280;48556;51.972;4.624;2023-03-03T09:16:10;102763.84;;;7.52;78.77
62508;BME280;48556;51.972;4.624;2023-03-03T09:18:45;102748.28;;;7.86;78.05
62508;BME280;48556;51.972;4.624;2023-03-03T09:21:32;102751.06;;;7.92;77.24
62508;BME280;48556;51.972;4.624;2023-03-03T09:24:27;102754.44;;;7.59;78.09
62508;BME280;48556;51.972;4.624;2023-03-03T09:26:57;102755.88;;;8.07;77.13
62508;BME280;48556;51.972;4.624;2023-03-03T09:29:39;102751.34;;;7.73;78.24
62508;BME280;48556;51.972;4.624;2023-03-03T09:32:43;102757.59;;;7.49;78.53
62508;BME280;48556;51.972;4.624;2023-03-03T09:38:39;102758.00;;;7.90;77.82
62508;BME280;48556;51.972;4.624;2023-03-03T10:01:40;102754.25;;;8.75;73.34
62508;BME280;48556;51.972;4.624;2023-03-03T10:04:33;102755.88;;;8.69;72.81
62508;BME280;48556;51.972;4.624;2023-03-03T10:07:24;102755.22;;;8.45;73.41
62508;BME280;48556;51.972;4.624;2023-03-03T10:21:51;102750.75;;;8.74;71.75
62508;BME280;48556;51.972;4.624;2023-03-03T10:27:39;102750.72;;;8.72;72.15
62508;BME280;48556;51.972;4.624;2023-03-03T10:30:54;102763.06;;;8.77;72.16
62508;BME280;48556;51.972;4.624;2023-03-03T10:36:53;102754.09;;;8.68;72.44
62508;BME280;48556;51.972;4.624;2023-03-03T10:46:26;102748.03;;;9.04;70.50
62508;BME280;48556;51.972;4.624;2023-03-03T10:49:29;102749.69;;;9.75;69.70
62508;BME280;48556;51.972;4.624;2023-03-03T11:01:44;102756.81;;;9.81;66.27
62508;BME280;48556;51.972;4.624;2023-03-03T11:04:37;102758.19;;;10.03;65.50
62508;BME280;48556;51.972;4.624;2023-03-03T11:12:47;102752.94;;;10.48;62.86
62508;BME280;48556;51.972;4.624;2023-03-03T11:26:53;102744.47;;;11.74;56.45
62508;BME280;48556;51.972;4.624;2023-03-03T11:33:06;102751.59;;;11.82;55.05
62508;BME280;48556;51.972;4.624;2023-03-03T11:39:01;102746.72;;;12.12;52.45
62508;BME280;48556;51.972;4.624;2023-03-03T11:58:30;102729.41;;;17.65;38.03
62508;BME280;48556;51.972;4.624;2023-03-03T12:04:38;102714.66;;;20.15;32.66
62508;BME280;48556;51.972;4.624;2023-03-03T12:10:51;102722.34;;;22.28;28.34
62508;BME280;48556;51.972;4.624;2023-03-03T12:14:11;102710.75;;;23.60;26.60
62508;BME280;48556;51.972;4.624;2023-03-03T12:16:57;102708.34;;;24.23;24.89
62508;BME280;48556;51.972;4.624;2023-03-03T12:19:45;102706.81;;;25.24;23.95
62508;BME280;48556;51.972;4.624;2023-03-03T12:22:34;102705.53;;;24.04;24.07
62508;BME280;48556;51.972;4.624;2023-03-03T12:25:35;102705.75;;;24.66;23.55
62508;BME280;48556;51.972;4.624;2023-03-03T12:31:53;102693.69;;;20.73;27.66
62508;BME280;48556;51.972;4.624;2023-03-03T12:34:57;102689.00;;;20.06;29.05
62508;BME280;48556;51.972;4.624;2023-03-03T12:37:58;102696.50;;;16.89;34.15
62508;BME280;48556;51.972;4.624;2023-03-03T12:40:47;102693.41;;;16.29;35.72
62508;BME280;48556;51.972;4.624;2023-03-03T12:46:27;102691.91;;;14.11;41.08
62508;BME280;48556;51.972;4.624;2023-03-03T12:53:01;102683.97;;;12.62;44.88
62508;BME280;48556;51.972;4.624;2023-03-03T13:09:16;102686.28;;;12.29;46.45
62508;BME280;48556;51.972;4.624;2023-03-03T13:26:17;102675.13;;;22.24;25.43
62508;BME280;48556;51.972;4.624;2023-03-03T13:29:28;102672.34;;;22.82;24.36
62508;BME280;48556;51.972;4.624;2023-03-03T13:43:37;102676.03;;;16.99;32.14
62508;BME280;48556;51.972;4.624;2023-03-03T13:47:07;102669.09;;;15.06;34.61
62508;BME280;48556;51.972;4.624;2023-03-03T14:09:49;102658.13;;;13.38;40.29
62508;BME280;48556;51.972;4.624;2023-03-03T14:15:32;102659.41;;;12.72;42.86
62508;BME280;48556;51.972;4.624;2023-03-03T14:21:15;102651.59;;;12.86;42.14
62508;BME280;48556;51.972;4.624;2023-03-03T14:24:16;102662.75;;;12.51;42.97
62508;BME280;48556;51.972;4.624;2023-03-03T14:27:24;102662.59;;;12.33;43.40
62508;BME280;48556;51.972;4.624;2023-03-03T14:30:28;102659.84;;;12.23;43.94
62508;BME280;48556;51.972;4.624;2023-03-03T14:33:35;102653.56;;;12.10;44.62
62508;BME280;48556;51.972;4.624;2023-03-03T14:36:11;102654.41;;;12.06;44.91
62508;BME280;48556;51.972;4.624;2023-03-03T14:39:35;102651.75;;;12.06;44.79
62508;BME280;48556;51.972;4.624;2023-03-03T14:42:13;102646.81;;;11.62;45.83
62508;BME280;48556;51.972;4.624;2023-03-03T14:45:53;102661.31;;;11.29;46.67
62508;BME280;48556;51.972;4.624;2023-03-03T14:48:23;102643.72;;;11.28;46.53
62508;BME280;48556;51.972;4.624;2023-03-03T14:55:27;102653.22;;;11.17;47.50
62508;BME280;48556;51.972;4.624;2023-03-03T14:57:54;102655.94;;;11.23;47.23
62508;BME280;48556;51.972;4.624;2023-03-03T15:00:32;102643.00;;;11.40;47.15
62508;BME280;48556;51.972;4.624;2023-03-03T15:03:27;102639.06;;;11.07;47.80
62508;BME280;48556;51.972;4.624;2023-03-03T15:06:54;102640.28;;;11.32;47.46
62508;BME280;48556;51.972;4.624;2023-03-03T15:09:52;102645.34;;;11.17;48.20
62508;BME280;48556;51.972;4.624;2023-03-03T15:12:47;102635.81;;;11.25;47.82
62508;BME280;48556;51.972;4.624;2023-03-03T15:15:20;102638.44;;;11.25;47.31
62508;BME280;48556;51.972;4.624;2023-03-03T15:17:57;102638.25;;;11.13;47.75
62508;BME280;48556;51.972;4.624;2023-03-03T15:41:42;102632.06;;;10.54;49.67
62508;BME280;48556;51.972;4.624;2023-03-03T15:45:00;102618.81;;;10.48;49.62
62508;BME280;48556;51.972;4.624;2023-03-03T15:51:02;102619.44;;;10.88;48.56
62508;BME280;48556;51.972;4.624;2023-03-03T15:54:13;102621.75;;;10.66;49.31
62508;BME280;48556;51.972;4.624;2023-03-03T15:57:27;102620.06;;;10.71;48.90
62508;BME280;48556;51.972;4.624;2023-03-03T16:03:34;102621.31;;;10.40;48.60
62508;BME280;48556;51.972;4.624;2023-03-03T16:10:14;102617.44;;;10.21;49.30
62508;BME280;48556;51.972;4.624;2023-03-03T16:13:45;102626.69;;;10.48;48.86
62508;BME280;48556;51.972;4.624;2023-03-03T16:23:48;102634.84;;;10.14;48.78
62508;BME280;48556;51.972;4.624;2023-03-03T16:27:13;102640.81;;;10.05;48.33
62508;BME280;48556;51.972;4.624;2023-03-03T16:38:44;102625.00;;;10.50;47.09
62508;BME280;48556;51.972;4.624;2023-03-03T16:55:16;102638.00;;;10.42;47.30
62508;BME280;48556;51.972;4.624;2023-03-03T17:01:38;102638.19;;;10.05;48.08
62508;BME280;48556;51.972;4.624;2023-03-03T17:15:03;102647.38;;;9.40;51.07
62508;BME280;48556;51.972;4.624;2023-03-03T17:18:28;102659.75;;;9.46;50.84
62508;BME280;48556;51.972;4.624;2023-03-03T17:22:11;102649.50;;;9.17;51.71
62508;BME280;48556;51.972;4.624;2023-03-03T17:31:20;102662.22;;;9.40;50.64
62508;BME280;48556;51.972;4.624;2023-03-03T17:34:11;102662.53;;;9.95;49.71
62508;BME280;48556;51.972;4.624;2023-03-03T17:37:35;102668.59;;;9.92;49.41
62508;BME280;48556;51.972;4.624;2023-03-03T17:46:48;102680.94;;;9.97;50.37
62508;BME280;48556;51.972;4.624;2023-03-03T18:06:51;102688.28;;;9.70;52.37
62508;BME280;48556;51.972;4.624;2023-03-03T18:16:44;102695.19;;;8.89;53.91
62508;BME280;48556;51.972;4.624;2023-03-03T18:22:52;102703.41;;;8.68;54.41
62508;BME280;48556;51.972;4.624;2023-03-03T18:32:24;102696.00;;;8.86;54.72
62508;BME280;48556;51.972;4.624;2023-03-03T18:38:35;102698.22;;;9.06;54.48
62508;BME280;48556;51.972;4.624;2023-03-03T18:42:28;102697.69;;;8.86;55.59
62508;BME280;48556;51.972;4.624;2023-03-03T18:44:56;102696.63;;;9.51;54.28
62508;BME280;48556;51.972;4.624;2023-03-03T18:48:19;102696.88;;;9.25;55.27
62508;BME280;48556;51.972;4.624;2023-03-03T18:55:20;102702.25;;;9.28;55.66
62508;BME280;48556;51.972;4.624;2023-03-03T18:58:37;102708.44;;;9.32;56.16
62508;BME280;48556;51.972;4.624;2023-03-03T19:04:24;102714.75;;;9.40;55.61
62508;BME280;48556;51.972;4.624;2023-03-03T19:10:51;102718.09;;;9.33;54.98
62508;BME280;48556;51.972;4.624;2023-03-03T19:13:38;102720.03;;;9.05;55.20
62508;BME280;48556;51.972;4.624;2023-03-03T19:17:40;102724.63;;;9.14;54.10
62508;BME280;48556;51.972;4.624;2023-03-03T19:27:30;102717.88;;;9.25;54.06
62508;BME280;48556;51.972;4.624;2023-03-03T19:30:49;102712.38;;;9.51;53.63
62508;BME280;48556;51.972;4.624;2023-03-03T19:40:49;102714.91;;;9.46;54.53
62508;BME280;48556;51.972;4.624;2023-03-03T20:14:50;102730.28;;;10.12;53.37
62508;BME280;48556;51.972;4.624;2023-03-03T20:27:51;102732.63;;;10.39;52.78
62508;BME280;48556;51.972;4.624;2023-03-03T20:31:00;102743.56;;;10.18;53.55
62508;BME280;48556;51.972;4.624;2023-03-03T20:50:52;102751.84;;;10.84;51.97
62508;BME280;48556;51.972;4.624;2023-03-03T20:53:57;102755.44;;;10.89;51.73
62508;BME280;48556;51.972;4.624;2023-03-03T20:57:15;102750.44;;;11.04;51.68
62508;BME280;48556;51.972;4.624;2023-03-03T21:04:36;102742.50;;;11.01;51.82
62508;BME280;48556;51.972;4.624;2023-03-03T21:07:08;102744.19;;;10.98;51.76
62508;BME280;48556;51.972;4.624;2023-03-03T21:10:17;102742.97;;;10.31;53.94
62508;BME280;48556;51.972;4.624;2023-03-03T21:13:47;102745.75;;;10.39;53.77
62508;BME280;48556;51.972;4.624;2023-03-03T21:17:43;102739.53;;;10.83;52.83
62508;BME280;48556;51.972;4.624;2023-03-03T21:20:28;102744.78;;;10.83;52.82
62508;BME280;48556;51.972;4.624;2023-03-03T21:23:02;102740.56;;;10.91;52.67
62508;BME280;48556;51.972;4.624;2023-03-03T21:26:42;102741.72;;;11.07;52.04
62508;BME280;48556;51.972;4.624;2023-03-03T21:29:42;102738.88;;;10.94;52.65
62508;BME280;48556;51.972;4.624;2023-03-03T21:32:36;102734.22;;;10.80;52.73
62508;BME280;48556;51.972;4.624;2023-03-03T21:35:17;102740.97;;;11.16;52.06